RBA weather

Rabat-Salé Airport
Rabat, Rabat-Salé Province, Morocco

Public forecast

Using degrees Celsius for public forecast. Weather courtesy of forecast.io.

Current aviation weather report (METAR) for Rabat-Salé Airport

Retrieved 2020/03/29 21:30 UTC (14 minutes ago):

GMME 292130Z 13003KT 6000 FEW020 09/08 Q1017 NOSIG

Aviation forecast (TAF) for Rabat-Salé Airport

Retrieved 2020/03/29 18:18 UTC (3 hours ago):

TAF GMME 291700Z 2918/3024 26010KT 8000 SCT015 BKN020 TEMPO 2918/3006 14006KT